sensor_id;sensor_type;location;lat;lon;timestamp;temperature;humidity
21318;DHT22;10818;50.830;6.524;2022-08-19T00:03:21;18.30;99.90
21318;DHT22;10818;50.830;6.524;2022-08-19T00:08:21;18.30;99.90
21318;DHT22;10818;50.830;6.524;2022-08-19T00:13:22;18.30;99.90
21318;DHT22;10818;50.830;6.524;2022-08-19T00:18:23;18.20;99.90
21318;DHT22;10818;50.830;6.524;2022-08-19T00:23:23;18.10;99.90
21318;DHT22;10818;50.830;6.524;2022-08-19T00:28:24;18.10;99.90
21318;DHT22;10818;50.830;6.524;2022-08-19T00:33:24;18.10;99.90
21318;DHT22;10818;50.830;6.524;2022-08-19T00:38:25;18.10;99.90
21318;DHT22;10818;50.830;6.524;2022-08-19T00:43:27;18.00;99.90
21318;DHT22;10818;50.830;6.524;2022-08-19T00:48:27;17.90;99.90
21318;DHT22;10818;50.830;6.524;2022-08-19T00:53:30;17.90;99.90
21318;DHT22;10818;50.830;6.524;2022-08-19T00:58:33;18.00;99.90
21318;DHT22;10818;50.830;6.524;2022-08-19T01:03:34;17.90;99.90
21318;DHT22;10818;50.830;6.524;2022-08-19T01:08:35;17.80;99.90
21318;DHT22;10818;50.830;6.524;2022-08-19T01:13:36;17.70;99.90
21318;DHT22;10818;50.830;6.524;2022-08-19T01:18:39;17.70;99.90
21318;DHT22;10818;50.830;6.524;2022-08-19T01:23:42;17.80;99.90
21318;DHT22;10818;50.830;6.524;2022-08-19T01:28:47;17.70;99.90
21318;DHT22;10818;50.830;6.524;2022-08-19T01:33:49;17.70;99.90
21318;DHT22;10818;50.830;6.524;2022-08-19T01:38:50;17.60;99.90
21318;DHT22;10818;50.830;6.524;2022-08-19T01:43:51;17.60;99.90
21318;DHT22;10818;50.830;6.524;2022-08-19T01:48:53;17.60;99.90
21318;DHT22;10818;50.830;6.524;2022-08-19T01:53:53;17.50;99.90
21318;DHT22;10818;50.830;6.524;2022-08-19T01:58:58;17.50;99.90
21318;DHT22;10818;50.830;6.524;2022-08-19T02:03:59;17.40;99.90
21318;DHT22;10818;50.830;6.524;2022-08-19T02:09:01;17.40;99.90
21318;DHT22;10818;50.830;6.524;2022-08-19T02:14:04;17.40;99.90
21318;DHT22;10818;50.830;6.524;2022-08-19T02:19:06;17.40;99.90
21318;DHT22;10818;50.830;6.524;2022-08-19T02:24:06;17.40;99.90
21318;DHT22;10818;50.830;6.524;2022-08-19T02:29:07;17.30;99.90
21318;DHT22;10818;50.830;6.524;2022-08-19T02:34:08;17.30;99.90
21318;DHT22;10818;50.830;6.524;2022-08-19T02:39:09;17.30;99.90
21318;DHT22;10818;50.830;6.524;2022-08-19T02:44:10;17.40;99.90
21318;DHT22;10818;50.830;6.524;2022-08-19T02:49:10;17.40;99.90
21318;DHT22;10818;50.830;6.524;2022-08-19T02:54:12;17.50;99.90
21318;DHT22;10818;50.830;6.524;2022-08-19T02:59:13;17.50;99.90
21318;DHT22;10818;50.830;6.524;2022-08-19T03:04:15;17.50;99.90
21318;DHT22;10818;50.830;6.524;2022-08-19T03:09:18;17.40;99.90
21318;DHT22;10818;50.830;6.524;2022-08-19T03:14:18;17.40;99.90
21318;DHT22;10818;50.830;6.524;2022-08-19T03:19:20;17.40;99.90
21318;DHT22;10818;50.830;6.524;2022-08-19T03:24:21;17.50;99.90
21318;DHT22;10818;50.830;6.524;2022-08-19T03:29:22;17.40;99.90
21318;DHT22;10818;50.830;6.524;2022-08-19T03:34:25;17.40;99.90
21318;DHT22;10818;50.830;6.524;2022-08-19T03:39:27;17.40;99.90
21318;DHT22;10818;50.830;6.524;2022-08-19T03:44:29;17.30;99.90
21318;DHT22;10818;50.830;6.524;2022-08-19T03:49:30;17.30;99.90
21318;DHT22;10818;50.830;6.524;2022-08-19T03:54:31;17.30;99.90
21318;DHT22;10818;50.830;6.524;2022-08-19T03:59:34;17.30;99.90
21318;DHT22;10818;50.830;6.524;2022-08-19T04:04:37;17.30;99.90
21318;DHT22;10818;50.830;6.524;2022-08-19T04:09:37;17.30;99.90
21318;DHT22;10818;50.830;6.524;2022-08-19T04:14:38;17.30;99.90
21318;DHT22;10818;50.830;6.524;2022-08-19T04:19:40;17.30;99.90
21318;DHT22;10818;50.830;6.524;2022-08-19T04:24:41;17.20;99.90
21318;DHT22;10818;50.830;6.524;2022-08-19T04:29:41;17.30;99.90
21318;DHT22;10818;50.830;6.524;2022-08-19T04:34:42;17.30;99.90
21318;DHT22;10818;50.830;6.524;2022-08-19T04:39:43;17.30;99.90
21318;DHT22;10818;50.830;6.524;2022-08-19T04:45:04;17.40;99.90
21318;DHT22;10818;50.830;6.524;2022-08-19T04:50:05;17.50;99.90
21318;DHT22;10818;50.830;6.524;2022-08-19T04:55:06;17.60;99.90
21318;DHT22;10818;50.830;6.524;2022-08-19T05:00:09;17.70;99.90
21318;DHT22;10818;50.830;6.524;2022-08-19T05:05:10;17.80;99.90
21318;DHT22;10818;50.830;6.524;2022-08-19T05:10:10;17.90;99.90
21318;DHT22;10818;50.830;6.524;2022-08-19T05:15:11;18.10;99.90
21318;DHT22;10818;50.830;6.524;2022-08-19T05:20:12;18.20;99.90
21318;DHT22;10818;50.830;6.524;2022-08-19T05:25:31;18.30;99.90
21318;DHT22;10818;50.830;6.524;2022-08-19T05:30:32;18.40;99.90
21318;DHT22;10818;50.830;6.524;2022-08-19T05:35:32;18.50;99.90
21318;DHT22;10818;50.830;6.524;2022-08-19T05:40:37;18.60;99.90
21318;DHT22;10818;50.830;6.524;2022-08-19T05:45:39;18.80;99.90
21318;DHT22;10818;50.830;6.524;2022-08-19T05:50:41;19.20;99.90
21318;DHT22;10818;50.830;6.524;2022-08-19T05:55:42;19.60;99.90
21318;DHT22;10818;50.830;6.524;2022-08-19T06:00:43;20.20;99.90
21318;DHT22;10818;50.830;6.524;2022-08-19T06:05:45;20.70;99.90
21318;DHT22;10818;50.830;6.524;2022-08-19T06:10:46;20.70;99.90
21318;DHT22;10818;50.830;6.524;2022-08-19T06:15:46;20.70;99.90
21318;DHT22;10818;50.830;6.524;2022-08-19T06:20:47;20.60;99.90
21318;DHT22;10818;50.830;6.524;2022-08-19T06:25:49;20.80;99.90
21318;DHT22;10818;50.830;6.524;2022-08-19T06:30:49;21.00;99.90
21318;DHT22;10818;50.830;6.524;2022-08-19T06:35:51;21.00;99.90
21318;DHT22;10818;50.830;6.524;2022-08-19T06:41:01;21.10;99.90
21318;DHT22;10818;50.830;6.524;2022-08-19T06:46:02;21.10;99.90
21318;DHT22;10818;50.830;6.524;2022-08-19T06:51:04;21.40;99.90
21318;DHT22;10818;50.830;6.524;2022-08-19T06:56:06;21.60;99.90
21318;DHT22;10818;50.830;6.524;2022-08-19T07:01:07;21.80;99.90
21318;DHT22;10818;50.830;6.524;2022-08-19T07:06:10;21.90;99.90
21318;DHT22;10818;50.830;6.524;2022-08-19T07:11:14;22.90;99.90
21318;DHT22;10818;50.830;6.524;2022-08-19T07:16:19;25.90;99.90
21318;DHT22;10818;50.830;6.524;2022-08-19T07:21:25;26.90;99.90
21318;DHT22;10818;50.830;6.524;2022-08-19T07:26:31;26.70;99.90
21318;DHT22;10818;50.830;6.524;2022-08-19T07:31:32;26.00;99.90
21318;DHT22;10818;50.830;6.524;2022-08-19T07:36:39;25.20;99.90
21318;DHT22;10818;50.830;6.524;2022-08-19T07:41:41;25.90;99.90
21318;DHT22;10818;50.830;6.524;2022-08-19T07:46:45;28.00;99.90
21318;DHT22;10818;50.830;6.524;2022-08-19T07:51:52;28.00;99.90
21318;DHT22;10818;50.830;6.524;2022-08-19T07:56:53;31.40;99.90
21318;DHT22;10818;50.830;6.524;2022-08-19T08:01:55;35.50;96.50
21318;DHT22;10818;50.830;6.524;2022-08-19T08:06:56;38.30;89.00
21318;DHT22;10818;50.830;6.524;2022-08-19T08:12:17;40.20;74.10
21318;DHT22;10818;50.830;6.524;2022-08-19T08:17:18;41.90;65.80
21318;DHT22;10818;50.830;6.524;2022-08-19T08:22:19;42.90;57.20
21318;DHT22;10818;50.830;6.524;2022-08-19T08:27:44;41.60;56.30
21318;DHT22;10818;50.830;6.524;2022-08-19T08:32:44;39.00;60.00
21318;DHT22;10818;50.830;6.524;2022-08-19T08:37:45;38.00;60.90
21318;DHT22;10818;50.830;6.524;2022-08-19T08:43:29;39.00;59.60
21318;DHT22;10818;50.830;6.524;2022-08-19T08:48:15;36.30;64.50
21318;DHT22;10818;50.830;6.524;2022-08-19T08:53:18;34.20;70.80
21318;DHT22;10818;50.830;6.524;2022-08-19T08:58:26;33.00;72.90
21318;DHT22;10818;50.830;6.524;2022-08-19T09:03:28;31.60;76.50
21318;DHT22;10818;50.830;6.524;2022-08-19T09:08:45;30.10;81.00
21318;DHT22;10818;50.830;6.524;2022-08-19T09:14:10;29.30;85.60
21318;DHT22;10818;50.830;6.524;2022-08-19T09:19:14;29.00;88.40
21318;DHT22;10818;50.830;6.524;2022-08-19T09:24:17;28.90;90.30
21318;DHT22;10818;50.830;6.524;2022-08-19T09:29:18;29.00;91.00
21318;DHT22;10818;50.830;6.524;2022-08-19T09:34:18;29.40;90.90
21318;DHT22;10818;50.830;6.524;2022-08-19T09:39:20;29.80;91.00
21318;DHT22;10818;50.830;6.524;2022-08-19T09:44:20;29.80;90.30
21318;DHT22;10818;50.830;6.524;2022-08-19T09:49:21;29.80;90.90
21318;DHT22;10818;50.830;6.524;2022-08-19T09:54:22;29.80;91.40
21318;DHT22;10818;50.830;6.524;2022-08-19T09:59:22;29.50;90.60
21318;DHT22;10818;50.830;6.524;2022-08-19T10:04:23;29.80;91.50
21318;DHT22;10818;50.830;6.524;2022-08-19T10:09:43;30.20;90.60
21318;DHT22;10818;50.830;6.524;2022-08-19T10:14:44;29.50;91.50
21318;DHT22;10818;50.830;6.524;2022-08-19T10:19:44;29.10;91.70
21318;DHT22;10818;50.830;6.524;2022-08-19T10:24:45;29.20;92.40
21318;DHT22;10818;50.830;6.524;2022-08-19T10:29:46;29.20;92.60
21318;DHT22;10818;50.830;6.524;2022-08-19T10:34:47;29.50;93.00
21318;DHT22;10818;50.830;6.524;2022-08-19T10:39:49;29.40;92.70
21318;DHT22;10818;50.830;6.524;2022-08-19T10:44:50;29.10;92.20
21318;DHT22;10818;50.830;6.524;2022-08-19T10:49:50;29.30;92.70
21318;DHT22;10818;50.830;6.524;2022-08-19T10:55:10;29.00;93.20
21318;DHT22;10818;50.830;6.524;2022-08-19T11:00:29;28.50;93.70
21318;DHT22;10818;50.830;6.524;2022-08-19T11:05:31;28.20;94.10
21318;DHT22;10818;50.830;6.524;2022-08-19T11:10:31;28.10;94.60
21318;DHT22;10818;50.830;6.524;2022-08-19T11:15:32;27.90;94.90
21318;DHT22;10818;50.830;6.524;2022-08-19T11:20:33;28.20;95.10
21318;DHT22;10818;50.830;6.524;2022-08-19T11:25:34;28.60;94.80
21318;DHT22;10818;50.830;6.524;2022-08-19T11:30:36;29.10;93.30
21318;DHT22;10818;50.830;6.524;2022-08-19T11:35:38;29.40;93.70
21318;DHT22;10818;50.830;6.524;2022-08-19T11:40:39;29.80;93.20
21318;DHT22;10818;50.830;6.524;2022-08-19T11:45:40;30.20;91.80
21318;DHT22;10818;50.830;6.524;2022-08-19T11:50:41;30.40;91.40
21318;DHT22;10818;50.830;6.524;2022-08-19T11:55:42;30.70;90.60
21318;DHT22;10818;50.830;6.524;2022-08-19T12:00:43;30.70;88.80
21318;DHT22;10818;50.830;6.524;2022-08-19T12:05:45;30.40;90.20
21318;DHT22;10818;50.830;6.524;2022-08-19T12:10:45;30.30;87.50
21318;DHT22;10818;50.830;6.524;2022-08-19T12:15:46;30.30;86.00
21318;DHT22;10818;50.830;6.524;2022-08-19T12:20:49;29.60;86.00
21318;DHT22;10818;50.830;6.524;2022-08-19T12:25:51;29.00;87.80
21318;DHT22;10818;50.830;6.524;2022-08-19T12:30:51;29.20;91.00
21318;DHT22;10818;50.830;6.524;2022-08-19T12:35:52;29.40;90.80
21318;DHT22;10818;50.830;6.524;2022-08-19T12:40:52;29.30;90.30
21318;DHT22;10818;50.830;6.524;2022-08-19T12:45:53;29.40;87.80
21318;DHT22;10818;50.830;6.524;2022-08-19T12:50:53;29.50;88.10
21318;DHT22;10818;50.830;6.524;2022-08-19T12:55:55;29.50;89.10
21318;DHT22;10818;50.830;6.524;2022-08-19T13:00:56;29.50;88.80
21318;DHT22;10818;50.830;6.524;2022-08-19T13:05:57;29.60;90.30
21318;DHT22;10818;50.830;6.524;2022-08-19T13:10:57;29.60;90.50
21318;DHT22;10818;50.830;6.524;2022-08-19T13:16:00;29.60;90.70
21318;DHT22;10818;50.830;6.524;2022-08-19T13:21:05;29.40;90.40
21318;DHT22;10818;50.830;6.524;2022-08-19T13:26:06;29.60;90.80
21318;DHT22;10818;50.830;6.524;2022-08-19T13:31:07;29.60;89.40
21318;DHT22;10818;50.830;6.524;2022-08-19T13:36:26;28.90;89.20
21318;DHT22;10818;50.830;6.524;2022-08-19T13:41:27;28.60;89.50
21318;DHT22;10818;50.830;6.524;2022-08-19T13:46:27;28.80;90.40
21318;DHT22;10818;50.830;6.524;2022-08-19T13:51:29;28.70;87.40
21318;DHT22;10818;50.830;6.524;2022-08-19T13:56:29;28.50;85.80
21318;DHT22;10818;50.830;6.524;2022-08-19T14:01:30;28.70;83.80
21318;DHT22;10818;50.830;6.524;2022-08-19T14:06:31;28.80;85.00
21318;DHT22;10818;50.830;6.524;2022-08-19T14:11:31;29.00;87.70
21318;DHT22;10818;50.830;6.524;2022-08-19T14:16:31;28.80;88.90
21318;DHT22;10818;50.830;6.524;2022-08-19T14:21:32;28.80;87.90
21318;DHT22;10818;50.830;6.524;2022-08-19T14:26:33;28.60;88.50
21318;DHT22;10818;50.830;6.524;2022-08-19T14:31:33;28.60;90.20
21318;DHT22;10818;50.830;6.524;2022-08-19T14:36:34;28.60;90.00
21318;DHT22;10818;50.830;6.524;2022-08-19T14:41:34;28.00;90.80
21318;DHT22;10818;50.830;6.524;2022-08-19T14:46:35;28.30;91.00
21318;DHT22;10818;50.830;6.524;2022-08-19T14:51:35;28.40;90.00
21318;DHT22;10818;50.830;6.524;2022-08-19T14:56:36;28.30;90.30
21318;DHT22;10818;50.830;6.524;2022-08-19T15:01:36;28.10;90.80
21318;DHT22;10818;50.830;6.524;2022-08-19T15:06:37;28.40;90.70
21318;DHT22;10818;50.830;6.524;2022-08-19T15:11:37;28.20;91.30
21318;DHT22;10818;50.830;6.524;2022-08-19T15:16:38;28.30;91.30
21318;DHT22;10818;50.830;6.524;2022-08-19T15:21:41;28.30;92.00
21318;DHT22;10818;50.830;6.524;2022-08-19T15:26:42;28.50;92.10
21318;DHT22;10818;50.830;6.524;2022-08-19T15:31:42;28.40;91.90
21318;DHT22;10818;50.830;6.524;2022-08-19T15:36:43;28.30;92.60
21318;DHT22;10818;50.830;6.524;2022-08-19T15:41:44;28.40;92.90
21318;DHT22;10818;50.830;6.524;2022-08-19T15:46:45;28.20;92.90
21318;DHT22;10818;50.830;6.524;2022-08-19T15:51:47;28.00;93.20
21318;DHT22;10818;50.830;6.524;2022-08-19T15:56:48;27.80;94.10
21318;DHT22;10818;50.830;6.524;2022-08-19T16:02:08;27.60;94.50
21318;DHT22;10818;50.830;6.524;2022-08-19T16:07:27;27.40;95.20
21318;DHT22;10818;50.830;6.524;2022-08-19T16:12:28;27.30;95.90
21318;DHT22;10818;50.830;6.524;2022-08-19T16:17:29;27.20;96.60
21318;DHT22;10818;50.830;6.524;2022-08-19T16:22:31;27.00;97.10
21318;DHT22;10818;50.830;6.524;2022-08-19T16:27:32;26.90;97.80
21318;DHT22;10818;50.830;6.524;2022-08-19T16:32:33;26.80;98.60
21318;DHT22;10818;50.830;6.524;2022-08-19T16:37:34;26.70;98.60
21318;DHT22;10818;50.830;6.524;2022-08-19T16:42:34;26.50;99.00
21318;DHT22;10818;50.830;6.524;2022-08-19T16:47:35;26.50;99.40
21318;DHT22;10818;50.830;6.524;2022-08-19T16:52:36;26.40;99.90
21318;DHT22;10818;50.830;6.524;2022-08-19T16:57:37;26.30;99.90
21318;DHT22;10818;50.830;6.524;2022-08-19T17:02:37;26.30;99.90
21318;DHT22;10818;50.830;6.524;2022-08-19T17:07:38;26.30;99.90
21318;DHT22;10818;50.830;6.524;2022-08-19T17:12:39;26.30;99.90
21318;DHT22;10818;50.830;6.524;2022-08-19T17:17:39;26.30;99.90
21318;DHT22;10818;50.830;6.524;2022-08-19T17:22:40;26.20;99.90
21318;DHT22;10818;50.830;6.524;2022-08-19T17:27:41;26.40;99.90
21318;DHT22;10818;50.830;6.524;2022-08-19T17:32:41;26.30;99.90
21318;DHT22;10818;50.830;6.524;2022-08-19T17:37:42;26.10;99.90
21318;DHT22;10818;50.830;6.524;2022-08-19T17:42:43;26.00;99.90
21318;DHT22;10818;50.830;6.524;2022-08-19T17:47:44;25.90;99.90
21318;DHT22;10818;50.830;6.524;2022-08-19T17:52:44;25.80;99.90
21318;DHT22;10818;50.830;6.524;2022-08-19T17:57:45;25.60;99.90
21318;DHT22;10818;50.830;6.524;2022-08-19T18:02:54;25.50;99.90
21318;DHT22;10818;50.830;6.524;2022-08-19T18:07:56;25.50;99.90
21318;DHT22;10818;50.830;6.524;2022-08-19T18:12:57;25.30;99.90
21318;DHT22;10818;50.830;6.524;2022-08-19T18:17:58;25.20;99.90
21318;DHT22;10818;50.830;6.524;2022-08-19T18:22:58;25.10;99.90
21318;DHT22;10818;50.830;6.524;2022-08-19T18:28:00;25.00;99.90
21318;DHT22;10818;50.830;6.524;2022-08-19T18:33:03;25.00;99.90
21318;DHT22;10818;50.830;6.524;2022-08-19T18:38:04;24.80;99.90
21318;DHT22;10818;50.830;6.524;2022-08-19T18:43:24;24.80;99.90
21318;DHT22;10818;50.830;6.524;2022-08-19T18:48:43;24.70;99.90
21318;DHT22;10818;50.830;6.524;2022-08-19T18:54:02;24.60;99.90
21318;DHT22;10818;50.830;6.524;2022-08-19T18:59:03;24.50;99.90
21318;DHT22;10818;50.830;6.524;2022-08-19T19:04:07;24.40;99.90
21318;DHT22;10818;50.830;6.524;2022-08-19T19:09:16;24.20;99.90
21318;DHT22;10818;50.830;6.524;2022-08-19T19:14:27;24.10;99.90
21318;DHT22;10818;50.830;6.524;2022-08-19T19:19:32;24.10;99.90
21318;DHT22;10818;50.830;6.524;2022-08-19T19:24:32;23.80;99.90
21318;DHT22;10818;50.830;6.524;2022-08-19T19:29:34;23.70;99.90
21318;DHT22;10818;50.830;6.524;2022-08-19T19:34:38;23.60;99.90
21318;DHT22;10818;50.830;6.524;2022-08-19T19:39:39;23.50;99.90
21318;DHT22;10818;50.830;6.524;2022-08-19T19:44:39;23.30;99.90
21318;DHT22;10818;50.830;6.524;2022-08-19T19:49:40;23.10;99.90
21318;DHT22;10818;50.830;6.524;2022-08-19T19:54:41;22.90;99.90
21318;DHT22;10818;50.830;6.524;2022-08-19T19:59:41;22.90;99.90
21318;DHT22;10818;50.830;6.524;2022-08-19T20:04:43;22.80;99.90
21318;DHT22;10818;50.830;6.524;2022-08-19T20:09:43;22.70;99.90
21318;DHT22;10818;50.830;6.524;2022-08-19T20:14:44;22.60;99.90
21318;DHT22;10818;50.830;6.524;2022-08-19T20:19:44;22.50;99.90
21318;DHT22;10818;50.830;6.524;2022-08-19T20:24:45;22.30;99.90
21318;DHT22;10818;50.830;6.524;2022-08-19T20:29:45;22.30;99.90
21318;DHT22;10818;50.830;6.524;2022-08-19T20:34:46;22.20;99.90
21318;DHT22;10818;50.830;6.524;2022-08-19T20:39:49;22.20;99.90
21318;DHT22;10818;50.830;6.524;2022-08-19T20:44:49;22.10;99.90
21318;DHT22;10818;50.830;6.524;2022-08-19T20:49:50;22.20;99.90
21318;DHT22;10818;50.830;6.524;2022-08-19T20:54:53;22.10;99.90
21318;DHT22;10818;50.830;6.524;2022-08-19T20:59:53;22.00;99.90
21318;DHT22;10818;50.830;6.524;2022-08-19T21:04:54;22.10;99.90
21318;DHT22;10818;50.830;6.524;2022-08-19T21:09:55;22.10;99.90
21318;DHT22;10818;50.830;6.524;2022-08-19T21:14:56;22.00;99.90
21318;DHT22;10818;50.830;6.524;2022-08-19T21:19:56;22.00;99.90
21318;DHT22;10818;50.830;6.524;2022-08-19T21:24:57;22.10;99.90
21318;DHT22;10818;50.830;6.524;2022-08-19T21:29:58;22.00;99.90
21318;DHT22;10818;50.830;6.524;2022-08-19T21:34:58;22.00;99.90
21318;DHT22;10818;50.830;6.524;2022-08-19T21:39:59;22.00;99.90
21318;DHT22;10818;50.830;6.524;2022-08-19T21:44:59;21.90;99.90
21318;DHT22;10818;50.830;6.524;2022-08-19T21:50:00;21.90;99.90
21318;DHT22;10818;50.830;6.524;2022-08-19T21:55:00;21.90;99.90
21318;DHT22;10818;50.830;6.524;2022-08-19T22:00:05;21.90;99.90
21318;DHT22;10818;50.830;6.524;2022-08-19T22:05:06;21.90;99.90
21318;DHT22;10818;50.830;6.524;2022-08-19T22:10:08;21.80;99.90
21318;DHT22;10818;50.830;6.524;2022-08-19T22:15:11;21.80;99.90
21318;DHT22;10818;50.830;6.524;2022-08-19T22:20:18;21.80;99.90
21318;DHT22;10818;50.830;6.524;2022-08-19T22:25:44;21.80;99.90
21318;DHT22;10818;50.830;6.524;2022-08-19T22:30:43;21.80;99.90
21318;DHT22;10818;50.830;6.524;2022-08-19T22:35:45;21.80;99.90
21318;DHT22;10818;50.830;6.524;2022-08-19T22:40:48;21.80;99.90
21318;DHT22;10818;50.830;6.524;2022-08-19T22:45:51;21.70;99.90
21318;DHT22;10818;50.830;6.524;2022-08-19T22:50:52;21.70;99.90
21318;DHT22;10818;50.830;6.524;2022-08-19T22:56:13;21.60;99.90
21318;DHT22;10818;50.830;6.524;2022-08-19T23:01:15;21.60;99.90
21318;DHT22;10818;50.830;6.524;2022-08-19T23:06:16;21.60;99.90
21318;DHT22;10818;50.830;6.524;2022-08-19T23:11:16;21.60;99.90
21318;DHT22;10818;50.830;6.524;2022-08-19T23:16:17;21.30;99.90
21318;DHT22;10818;50.830;6.524;2022-08-19T23:21:17;21.10;99.90
21318;DHT22;10818;50.830;6.524;2022-08-19T23:26:19;21.00;99.90
21318;DHT22;10818;50.830;6.524;2022-08-19T23:31:19;20.50;99.90
21318;DHT22;10818;50.830;6.524;2022-08-19T23:36:21;20.50;99.90
21318;DHT22;10818;50.830;6.524;2022-08-19T23:41:22;20.50;99.90
21318;DHT22;10818;50.830;6.524;2022-08-19T23:46:22;20.40;99.90
21318;DHT22;10818;50.830;6.524;2022-08-19T23:51:23;20.50;99.90
21318;DHT22;10818;50.830;6.524;2022-08-19T23:56:25;20.50;99.90
